Bellaire, MI

1:21 PM EST on March 06, 2015 (GMT -0500)
Bellaire | Change Station
CLOSE
Current Station
Personal Weather Station
Location: Bellaire, MI
Elevation: 748 ft
Nearby Weather Stations

Elev 748 ft 44.91 °N, 85.24 °W | Updated 1 minute ago

Scattered Clouds
Scattered Clouds
26.0 °F
Feels Like 18 °F
N
8.0
Wind Variable Wind from WSW
Gusts 12.0 mph

Today
High -- | Low -- °F
--% Chance of Precip.
Yesterday
High -- | Low -- °F
Precip. -- in
7:10 AM 6:34 PM
Full, 99% visible
Pressure 30.15 in
Visibility 10.0 miles
Clouds Scattered Clouds 9000 ft
Windchill 18 °F
Dew Point 12 °F
Humidity 54%
Rainfall in
Snow Depth Not available.
UV 4 out of 12
Pollen .40 out of 12
Air Quality Not available.
Flu Activity Not available.
METAR KACB 061815Z AUTO 21010G21KT 10SM SCT090 M03/M13 A3015 RMK AO2 T10301135

More Conditions Fewer Conditions

Pressure 30.15 in
Visibility 10.0 miles
Clouds Scattered Clouds 9000 ft
Windchill 18 °F
Dew Point 12 °F
Humidity 54%
Rainfall in
Snow Depth Not available.
UV 4 out of 12
Pollen .40 out of 12
Air Quality Not available.
Flu Activity Not available.
METAR KACB 061815Z AUTO 21010G21KT 10SM SCT090 M03/M13 A3015 RMK AO2 T10301135

More Conditions Fewer Conditions

Nowcast | as of 1:00 PM EST on March 6, 2015

At 2 PM...mostly cloudy. Scattered flurries. Temperature 24. Southwest winds 17 mph. At 4 PM...mostly cloudy. Scattered flurries. Temperature 25. Southwest winds 20 mph. At 6 PM...mostly cloudy. Scattered flurries. Temperature 23. Southwest winds 18 mph with gusts to 30 mph. At 8 PM...cloudy. Chance of snow. Temperature 21. Southwest winds 16 mph.

×

10-Day Weather Forecast

Almanac

Astronomy

Mar. 06, 2015 Rise Set
Actual Time
Civil Twilight
Nautical Twilight
Astronomical Twilight
Moon
Length of Visible Light
Length of Day
Tomorrow will be .
, % of the Moon is Illuminated

Today's Extremes

State Highs State Lows

Community

WunderPhotos

Upload Photos

1,803,359 photos uploaded!

WunderBlogs® & News

Nearby

Air Quality

  Air Quality AQ Index Pollutant
Not available.

Snow Depth

Station Depth Elevation

Earthquake Activity

City Distance Mag. Time & Date
Minimum magnitude displayed is 2.5.

Coastal Water Temperatures

Place Temperature

Nearby Weather Stations